Time,TemperatureF,DewpointF,PressureIn,WindDirection,WindDirectionDegrees,WindSpeedMPH,WindSpeedGustMPH,Humidity,HourlyPrecipIn,Conditions,Clouds,dailyrainin,SoftwareType,DateUTC
2013-08-18 00:08:00,74.6,73.0,30.13,WSW,240,2.0,8.0,96,0.00,,,0.00,weatherlink.com 1.10,2013-08-18 04:08:00,
2013-08-18 00:23:00,74.5,73.0,30.13,SW,229,3.0,6.0,96,0.00,,,0.00,weatherlink.com 1.10,2013-08-18 04:23:00,
2013-08-18 00:38:00,74.4,73.0,30.14,West,264,2.0,9.0,96,0.00,,,0.00,weatherlink.com 1.10,2013-08-18 04:38:00,
2013-08-18 00:54:00,74.4,73.0,30.14,West,271,4.0,6.0,96,0.00,,,0.00,weatherlink.com 1.10,2013-08-18 04:54:00,
2013-08-18 01:09:00,74.4,73.0,30.14,West,268,2.0,7.0,96,0.00,,,0.00,weatherlink.com 1.10,2013-08-18 05:09:00,
2013-08-18 01:24:00,74.4,73.0,30.14,West,262,1.0,6.0,96,0.00,,,0.00,weatherlink.com 1.10,2013-08-18 05:24:00,
2013-08-18 01:39:00,74.5,73.0,30.14,WNW,289,3.0,5.0,96,0.00,,,0.00,weatherlink.com 1.10,2013-08-18 05:39:00,
2013-08-18 01:54:00,74.4,73.0,30.14,West,272,3.0,4.0,96,0.00,,,0.00,weatherlink.com 1.10,2013-08-18 05:54:00,
2013-08-18 02:09:00,74.2,73.0,30.13,West,261,1.0,2.0,96,0.00,,,0.00,weatherlink.com 1.10,2013-08-18 06:09:00,
2013-08-18 02:24:00,74.0,73.0,30.13,WSW,250,2.0,4.0,97,0.00,,,0.00,weatherlink.com 1.10,2013-08-18 06:24:00,
2013-08-18 02:39:00,73.8,73.0,30.12,WSW,249,0.0,1.0,97,0.00,,,0.00,weatherlink.com 1.10,2013-08-18 06:39:00,
2013-08-18 02:54:00,73.8,73.0,30.13,West,266,1.0,2.0,97,0.00,,,0.00,weatherlink.com 1.10,2013-08-18 06:54:00,
2013-08-18 03:09:00,73.9,73.0,30.13,West,269,1.0,3.0,97,0.00,,,0.00,weatherlink.com 1.10,2013-08-18 07:09:00,
2013-08-18 03:24:00,74.0,73.0,30.13,West,260,0.0,3.0,97,0.00,,,0.00,weatherlink.com 1.10,2013-08-18 07:24:00,
2013-08-18 03:39:00,73.9,73.0,30.14,WSW,250,1.0,2.0,97,0.00,,,0.00,weatherlink.com 1.10,2013-08-18 07:39:00,
2013-08-18 03:54:00,73.7,73.0,30.13,WSW,238,1.0,4.0,97,0.00,,,0.00,weatherlink.com 1.10,2013-08-18 07:54:00,
2013-08-18 04:09:00,73.6,73.0,30.13,WSW,243,0.0,2.0,97,0.00,,,0.00,weatherlink.com 1.10,2013-08-18 08:09:00,
2013-08-18 04:24:00,73.6,73.0,30.14,West,266,3.0,3.0,97,0.00,,,0.00,weatherlink.com 1.10,2013-08-18 08:24:00,
2013-08-18 04:39:00,74.0,73.0,30.13,WSW,250,1.0,4.0,98,0.00,,,0.00,weatherlink.com 1.10,2013-08-18 08:39:00,
2013-08-18 04:54:00,74.1,73.0,30.13,West,267,1.0,3.0,97,0.00,,,0.00,weatherlink.com 1.10,2013-08-18 08:54:00,
2013-08-18 05:09:00,74.1,73.0,30.14,WSW,256,1.0,3.0,97,0.00,,,0.00,weatherlink.com 1.10,2013-08-18 09:09:00,
2013-08-18 05:24:00,74.0,73.0,30.14,SW,236,1.0,3.0,97,0.00,,,0.00,weatherlink.com 1.10,2013-08-18 09:24:00,
2013-08-18 05:39:00,74.0,73.0,30.14,WSW,252,1.0,2.0,97,0.00,,,0.00,weatherlink.com 1.10,2013-08-18 09:39:00,
2013-08-18 05:54:00,73.9,73.0,30.14,WSW,251,0.0,3.0,98,0.00,,,0.00,weatherlink.com 1.10,2013-08-18 09:54:00,
2013-08-18 06:09:00,73.9,73.0,30.15,WSW,250,0.0,4.0,98,0.00,,,0.00,weatherlink.com 1.10,2013-08-18 10:09:00,
2013-08-18 06:24:00,73.8,73.0,30.16,West,263,2.0,3.0,98,0.00,,,0.00,weatherlink.com 1.10,2013-08-18 10:24:00,
2013-08-18 06:39:00,73.7,73.0,30.16,West,264,1.0,5.0,98,0.00,,,0.00,weatherlink.com 1.10,2013-08-18 10:39:00,
2013-08-18 06:54:00,73.5,73.0,30.17,NW,312,2.0,4.0,97,0.00,,,0.00,weatherlink.com 1.10,2013-08-18 10:54:00,
2013-08-18 07:09:00,73.0,72.0,30.17,WNW,302,4.0,7.0,97,0.00,,,0.00,weatherlink.com 1.10,2013-08-18 11:09:00,
2013-08-18 07:24:00,72.5,72.0,30.18,WSW,249,3.0,10.0,97,0.00,,,0.00,weatherlink.com 1.10,2013-08-18 11:24:00,
2013-08-18 07:39:00,72.4,72.0,30.18,West,269,6.0,10.0,97,0.00,,,0.00,weatherlink.com 1.10,2013-08-18 11:39:00,
2013-08-18 07:54:00,72.7,72.0,30.18,WNW,287,2.0,5.0,97,0.00,,,0.00,weatherlink.com 1.10,2013-08-18 11:54:00,
2013-08-18 08:09:00,73.5,72.0,30.18,WNW,290,2.0,5.0,96,0.00,,,0.00,weatherlink.com 1.10,2013-08-18 12:09:00,
2013-08-18 08:24:00,74.1,73.0,30.19,WNW,300,3.0,6.0,96,0.01,,,0.01,weatherlink.com 1.10,2013-08-18 12:24:00,
2013-08-18 08:37:00,74.6,73.1,30.19,NNW,328,2.0,0.0,95,1.33,,,0.01,WeatherTracker,2013-08-18 12:37:00,
2013-08-18 08:49:00,75.2,73.7,30.19,West,260,2.0,0.0,95,1.33,,,0.01,WeatherTracker,2013-08-18 12:49:00,
2013-08-18 08:54:00,75.7,74.2,30.19,West,275,3.0,0.0,95,1.33,,,0.01,WeatherTracker,2013-08-18 12:54:00,
2013-08-18 08:59:00,76.0,74.1,30.20,WNW,303,2.0,0.0,94,1.33,,,0.01,WeatherTracker,2013-08-18 12:59:00,
2013-08-18 09:04:00,76.5,74.3,30.19,WNW,295,5.0,0.0,93,1.33,,,0.01,WeatherTracker,2013-08-18 13:04:00,
2013-08-18 09:09:00,76.6,74.1,30.19,WNW,295,4.0,0.0,92,1.33,,,0.01,WeatherTracker,2013-08-18 13:09:00,
2013-08-18 09:14:00,76.6,73.8,30.19,WNW,292,3.0,0.0,91,1.33,,,0.01,WeatherTracker,2013-08-18 13:14:00,
2013-08-18 09:19:00,77.1,74.6,30.19,West,263,3.0,0.0,92,1.33,,,0.01,WeatherTracker,2013-08-18 13:19:00,
2013-08-18 09:24:00,77.5,74.7,30.19,WNW,293,4.0,0.0,91,1.33,,,0.01,WeatherTracker,2013-08-18 13:24:00,
2013-08-18 09:29:00,77.6,74.4,30.19,WSW,256,3.0,0.0,90,1.33,,,0.01,WeatherTracker,2013-08-18 13:29:00,
2013-08-18 09:34:00,77.9,74.4,30.19,West,277,3.0,0.0,89,1.33,,,0.01,WeatherTracker,2013-08-18 13:34:00,
2013-08-18 09:40:00,78.2,74.3,30.19,West,259,3.0,0.0,88,1.33,,,0.01,WeatherTracker,2013-08-18 13:40:00,
2013-08-18 09:45:00,78.3,74.4,30.19,SW,230,2.0,0.0,88,0.00,,,0.01,WeatherTracker,2013-08-18 13:45:00,
2013-08-18 09:50:00,78.3,74.4,30.19,WSW,240,1.0,0.0,88,0.00,,,0.01,WeatherTracker,2013-08-18 13:50:00,
2013-08-18 09:55:00,78.9,75.0,30.20,West,264,1.0,0.0,88,0.00,,,0.01,WeatherTracker,2013-08-18 13:55:00,
2013-08-18 10:00:00,79.4,74.5,30.20,SW,235,1.0,0.0,85,0.00,,,0.01,WeatherTracker,2013-08-18 14:00:00,
2013-08-18 10:05:00,79.8,74.9,30.20,SW,214,4.0,0.0,85,0.00,,,0.01,WeatherTracker,2013-08-18 14:05:00,
2013-08-18 10:10:00,79.8,74.5,30.20,SW,231,3.0,0.0,84,0.00,,,0.01,WeatherTracker,2013-08-18 14:10:00,
2013-08-18 10:15:00,80.0,74.7,30.20,WSW,237,3.0,0.0,84,0.00,,,0.01,WeatherTracker,2013-08-18 14:15:00,
2013-08-18 10:20:00,80.1,74.5,30.20,West,269,1.0,0.0,83,0.00,,,0.01,WeatherTracker,2013-08-18 14:20:00,
2013-08-18 10:25:00,80.4,74.7,30.20,West,279,1.0,0.0,83,0.00,,,0.01,WeatherTracker,2013-08-18 14:25:00,
2013-08-18 10:30:00,80.8,74.8,30.20,WNW,294,0.0,0.0,82,0.00,,,0.01,WeatherTracker,2013-08-18 14:30:00,
2013-08-18 10:35:00,81.3,75.3,30.20,NW,319,1.0,0.0,82,0.00,,,0.01,WeatherTracker,2013-08-18 14:35:00,
2013-08-18 10:40:00,82.0,74.8,30.20,SW,236,6.0,0.0,79,0.00,,,0.01,WeatherTracker,2013-08-18 14:40:00,
2013-08-18 10:45:00,81.5,74.0,30.20,WSW,241,2.0,0.0,78,0.00,,,0.01,WeatherTracker,2013-08-18 14:45:00,
2013-08-18 10:50:00,81.8,75.0,30.20,SW,231,4.0,0.0,80,0.00,,,0.01,WeatherTracker,2013-08-18 14:50:00,
2013-08-18 10:56:00,81.0,75.3,30.20,South,172,5.0,0.0,83,0.00,,,0.01,WeatherTracker,2013-08-18 14:56:00,
2013-08-18 11:01:00,80.6,75.7,30.20,SSW,206,6.0,0.0,85,0.00,,,0.01,WeatherTracker,2013-08-18 15:01:00,
2013-08-18 11:06:00,80.5,75.9,30.21,SSW,207,6.0,0.0,86,0.00,,,0.01,WeatherTracker,2013-08-18 15:06:00,
2013-08-18 11:11:00,80.6,76.0,30.21,South,187,5.0,0.0,86,0.00,,,0.01,WeatherTracker,2013-08-18 15:11:00,
2013-08-18 11:16:00,80.7,76.1,30.21,South,177,6.0,0.0,86,0.00,,,0.01,WeatherTracker,2013-08-18 15:16:00,
2013-08-18 11:21:00,80.8,76.2,30.21,South,169,5.0,0.0,86,0.00,,,0.01,WeatherTracker,2013-08-18 15:21:00,
2013-08-18 11:26:00,80.8,75.9,30.20,South,173,6.0,0.0,85,0.00,,,0.01,WeatherTracker,2013-08-18 15:26:00,
2013-08-18 11:31:00,80.6,76.0,30.20,SSW,207,5.0,0.0,86,0.00,,,0.01,WeatherTracker,2013-08-18 15:31:00,
2013-08-18 11:36:00,80.6,76.0,30.20,SW,221,6.0,0.0,86,0.00,,,0.01,WeatherTracker,2013-08-18 15:36:00,
2013-08-18 11:41:00,80.5,75.9,30.20,South,181,9.0,0.0,86,0.00,,,0.01,WeatherTracker,2013-08-18 15:41:00,
2013-08-18 11:46:00,80.1,75.9,30.20,South,174,6.0,0.0,87,0.00,,,0.01,WeatherTracker,2013-08-18 15:46:00,
2013-08-18 11:51:00,79.9,75.7,30.20,South,176,6.0,0.0,87,0.00,,,0.01,WeatherTracker,2013-08-18 15:51:00,
2013-08-18 11:56:00,79.8,75.9,30.20,SW,231,10.0,0.0,88,0.00,,,0.01,WeatherTracker,2013-08-18 15:56:00,
2013-08-18 12:01:00,79.7,75.8,30.20,SSW,195,5.0,0.0,88,0.00,,,0.01,WeatherTracker,2013-08-18 16:01:00,
2013-08-18 12:06:00,79.7,75.8,30.20,SW,226,7.0,0.0,88,0.00,,,0.01,WeatherTracker,2013-08-18 16:06:00,
2013-08-18 12:11:00,79.7,75.5,30.20,SSW,202,7.0,0.0,87,0.00,,,0.01,WeatherTracker,2013-08-18 16:11:00,
2013-08-18 12:16:00,79.6,75.7,30.20,SSW,210,9.0,0.0,88,0.00,,,0.01,WeatherTracker,2013-08-18 16:16:00,
2013-08-18 12:21:00,79.4,75.5,30.20,SSW,205,11.0,0.0,88,0.00,,,0.01,WeatherTracker,2013-08-18 16:21:00,
2013-08-18 12:26:00,79.4,75.5,30.20,SW,218,10.0,0.0,88,0.00,,,0.01,WeatherTracker,2013-08-18 16:26:00,
2013-08-18 12:32:00,79.5,75.6,30.20,WSW,245,10.0,0.0,88,0.00,,,0.01,WeatherTracker,2013-08-18 16:32:00,
2013-08-18 12:37:00,79.8,76.3,30.20,SSE,162,9.0,0.0,89,0.00,,,0.01,WeatherTracker,2013-08-18 16:37:00,
2013-08-18 12:42:00,80.0,76.1,30.20,SSW,207,10.0,0.0,88,0.00,,,0.01,WeatherTracker,2013-08-18 16:42:00,
2013-08-18 12:47:00,80.3,76.4,30.20,SW,219,10.0,0.0,88,0.00,,,0.01,WeatherTracker,2013-08-18 16:47:00,
2013-08-18 12:52:00,80.3,76.1,30.19,SSW,197,10.0,0.0,87,0.00,,,0.01,WeatherTracker,2013-08-18 16:52:00,
2013-08-18 12:57:00,80.4,76.2,30.19,SW,218,11.0,0.0,87,0.00,,,0.01,WeatherTracker,2013-08-18 16:57:00,
2013-08-18 13:02:00,80.6,76.0,30.19,South,173,12.0,0.0,86,0.00,,,0.01,WeatherTracker,2013-08-18 17:02:00,
2013-08-18 13:07:00,80.5,75.6,30.19,SSW,213,12.0,0.0,85,0.00,,,0.01,WeatherTracker,2013-08-18 17:07:00,
2013-08-18 13:12:00,80.6,76.0,30.19,SW,216,10.0,0.0,86,0.00,,,0.01,WeatherTracker,2013-08-18 17:12:00,
2013-08-18 13:17:00,80.7,76.1,30.19,South,179,13.0,0.0,86,0.00,,,0.01,WeatherTracker,2013-08-18 17:17:00,
2013-08-18 13:22:00,80.9,76.3,30.19,SSW,209,13.0,0.0,86,0.00,,,0.01,WeatherTracker,2013-08-18 17:22:00,
2013-08-18 13:27:00,81.1,76.5,30.19,SSW,203,10.0,0.0,86,0.00,,,0.01,WeatherTracker,2013-08-18 17:27:00,
2013-08-18 13:32:00,81.3,76.7,30.19,South,179,7.0,0.0,86,0.00,,,0.01,WeatherTracker,2013-08-18 17:32:00,
2013-08-18 13:37:00,81.2,76.6,30.18,SSW,202,11.0,0.0,86,0.00,,,0.01,WeatherTracker,2013-08-18 17:37:00,
2013-08-18 13:42:00,81.1,76.5,30.18,SSW,210,13.0,0.0,86,0.00,,,0.01,WeatherTracker,2013-08-18 17:42:00,
2013-08-18 13:47:00,81.1,76.1,30.18,South,191,8.0,0.0,85,0.00,,,0.01,WeatherTracker,2013-08-18 17:47:00,
2013-08-18 13:52:00,81.4,76.4,30.18,SW,231,7.0,0.0,85,0.00,,,0.01,WeatherTracker,2013-08-18 17:52:00,
2013-08-18 13:57:00,81.7,77.1,30.18,South,188,5.0,0.0,86,0.00,,,0.01,WeatherTracker,2013-08-18 17:57:00,
2013-08-18 14:02:00,81.9,76.9,30.18,South,172,8.0,0.0,85,0.00,,,0.01,WeatherTracker,2013-08-18 18:02:00,
2013-08-18 14:07:00,81.8,77.2,30.18,SSW,212,9.0,0.0,86,0.00,,,0.01,WeatherTracker,2013-08-18 18:07:00,
2013-08-18 14:13:00,81.7,77.1,30.18,SSW,195,4.0,0.0,86,0.00,,,0.01,WeatherTracker,2013-08-18 18:13:00,
2013-08-18 14:18:00,82.0,77.4,30.18,SSW,207,12.0,0.0,86,0.00,,,0.01,WeatherTracker,2013-08-18 18:18:00,
2013-08-18 14:23:00,81.9,76.9,30.18,South,190,8.0,0.0,85,0.00,,,0.01,WeatherTracker,2013-08-18 18:23:00,
2013-08-18 14:28:00,81.8,76.1,30.18,SSW,207,11.0,0.0,83,0.00,,,0.01,WeatherTracker,2013-08-18 18:28:00,
2013-08-18 14:33:00,82.1,76.4,30.18,WSW,241,8.0,0.0,83,0.00,,,0.01,WeatherTracker,2013-08-18 18:33:00,
2013-08-18 14:38:00,82.2,76.5,30.18,WSW,243,7.0,0.0,83,0.00,,,0.01,WeatherTracker,2013-08-18 18:38:00,
2013-08-18 14:43:00,82.1,76.4,30.17,SW,219,9.0,0.0,83,0.00,,,0.01,WeatherTracker,2013-08-18 18:43:00,
2013-08-18 14:48:00,82.3,76.6,30.17,SSW,209,9.0,0.0,83,0.00,,,0.01,WeatherTracker,2013-08-18 18:48:00,
2013-08-18 14:53:00,82.7,75.9,30.17,SW,233,7.0,0.0,80,0.00,,,0.01,WeatherTracker,2013-08-18 18:53:00,
2013-08-18 14:58:00,83.2,76.0,30.17,SSW,199,7.0,0.0,79,0.00,,,0.01,WeatherTracker,2013-08-18 18:58:00,
2013-08-18 15:03:00,83.1,75.9,30.16,SSW,203,8.0,0.0,79,0.00,,,0.01,WeatherTracker,2013-08-18 19:03:00,
2013-08-18 15:08:00,83.1,75.9,30.16,SSW,205,9.0,0.0,79,0.00,,,0.01,WeatherTracker,2013-08-18 19:08:00,
2013-08-18 15:13:00,83.0,76.5,30.16,SSW,203,10.0,0.0,81,0.00,,,0.01,WeatherTracker,2013-08-18 19:13:00,
2013-08-18 15:18:00,82.8,75.2,30.16,SSW,211,11.0,0.0,78,0.00,,,0.01,WeatherTracker,2013-08-18 19:18:00,
2013-08-18 15:23:00,82.6,75.4,30.16,SW,220,13.0,0.0,79,0.00,,,0.01,WeatherTracker,2013-08-18 19:23:00,
2013-08-18 15:28:00,82.4,76.0,30.16,SW,214,11.0,0.0,81,0.00,,,0.01,WeatherTracker,2013-08-18 19:28:00,
2013-08-18 15:33:00,82.1,76.0,30.16,SSW,203,11.0,0.0,82,0.00,,,0.01,WeatherTracker,2013-08-18 19:33:00,
2013-08-18 15:38:00,82.3,75.9,30.16,South,188,8.0,0.0,81,0.00,,,0.01,WeatherTracker,2013-08-18 19:38:00,
2013-08-18 15:43:00,82.7,75.9,30.16,SSW,206,11.0,0.0,80,0.00,,,0.01,WeatherTracker,2013-08-18 19:43:00,
2013-08-18 15:49:00,82.9,76.1,30.15,SSW,201,8.0,0.0,80,0.00,,,0.01,WeatherTracker,2013-08-18 19:49:00,
2013-08-18 15:54:00,83.1,76.6,30.15,SSW,199,12.0,0.0,81,0.00,,,0.01,WeatherTracker,2013-08-18 19:54:00,
2013-08-18 15:59:00,83.2,77.1,30.15,South,177,9.0,0.0,82,0.00,,,0.01,WeatherTracker,2013-08-18 19:59:00,
2013-08-18 16:04:00,82.9,77.2,30.15,South,185,10.0,0.0,83,0.00,,,0.01,WeatherTracker,2013-08-18 20:04:00,
2013-08-18 16:09:00,82.6,76.9,30.15,SSW,202,13.0,0.0,83,0.00,,,0.01,WeatherTracker,2013-08-18 20:09:00,
2013-08-18 16:14:00,82.3,76.6,30.15,SW,222,11.0,0.0,83,0.00,,,0.01,WeatherTracker,2013-08-18 20:14:00,
2013-08-18 16:19:00,82.1,76.8,30.15,South,186,7.0,0.0,84,0.00,,,0.01,WeatherTracker,2013-08-18 20:19:00,
2013-08-18 16:24:00,82.0,75.9,30.15,SW,215,10.0,0.0,82,0.00,,,0.01,WeatherTracker,2013-08-18 20:24:00,
2013-08-18 16:30:00,82.1,76.0,30.15,South,186,11.0,13.0,81,0.00,,,0.01,weatherlink.com 1.10,2013-08-18 20:30:00,
2013-08-18 16:45:00,82.7,76.0,30.15,SSW,192,10.0,14.0,81,0.00,,,0.01,weatherlink.com 1.10,2013-08-18 20:45:00,
2013-08-18 17:00:00,82.1,76.0,30.15,SW,226,10.0,15.0,81,0.00,,,0.01,weatherlink.com 1.10,2013-08-18 21:00:00,
2013-08-18 17:15:00,82.2,76.0,30.15,SSW,212,14.0,16.0,80,0.00,,,0.01,weatherlink.com 1.10,2013-08-18 21:15:00,
2013-08-18 17:30:00,82.6,74.0,30.15,SSW,200,11.0,16.0,76,0.00,,,0.01,weatherlink.com 1.10,2013-08-18 21:30:00,
2013-08-18 17:45:00,82.8,75.0,30.15,WSW,242,9.0,14.0,78,0.00,,,0.01,weatherlink.com 1.10,2013-08-18 21:45:00,
2013-08-18 18:00:00,83.7,74.0,30.15,WSW,250,7.0,13.0,73,0.00,,,0.01,weatherlink.com 1.10,2013-08-18 22:00:00,
2013-08-18 18:15:00,84.1,75.0,30.15,SW,221,6.0,11.0,73,0.00,,,0.01,weatherlink.com 1.10,2013-08-18 22:15:00,
2013-08-18 18:30:00,83.9,74.0,30.14,SW,220,6.0,9.0,72,0.00,,,0.01,weatherlink.com 1.10,2013-08-18 22:30:00,
2013-08-18 18:45:00,83.5,74.0,30.14,WSW,240,10.0,10.0,73,0.00,,,0.01,weatherlink.com 1.10,2013-08-18 22:45:00,
2013-08-18 19:00:00,83.1,74.0,30.15,WSW,247,4.0,9.0,73,0.00,,,0.01,weatherlink.com 1.10,2013-08-18 23:00:00,
2013-08-18 19:15:00,82.5,74.0,30.15,WSW,246,3.0,8.0,75,0.00,,,0.01,weatherlink.com 1.10,2013-08-18 23:15:00,
2013-08-18 19:30:00,81.6,75.0,30.14,WSW,243,5.0,10.0,80,0.00,,,0.01,weatherlink.com 1.10,2013-08-18 23:30:00,
2013-08-18 19:45:00,80.7,74.0,30.15,West,259,4.0,6.0,79,0.00,,,0.01,weatherlink.com 1.10,2013-08-18 23:45:00,
2013-08-18 20:00:00,79.9,74.0,30.15,WNW,286,2.0,3.0,81,0.00,,,0.01,weatherlink.com 1.10,2013-08-19 00:00:00,
2013-08-18 20:15:00,79.3,74.0,30.15,WSW,258,0.0,2.0,83,0.00,,,0.01,weatherlink.com 1.10,2013-08-19 00:15:00,
2013-08-18 20:30:00,79.1,74.0,30.16,WSW,237,1.0,2.0,84,0.00,,,0.01,weatherlink.com 1.10,2013-08-19 00:30:00,
2013-08-18 20:45:00,78.7,74.0,30.16,WSW,255,0.0,1.0,85,0.00,,,0.01,weatherlink.com 1.10,2013-08-19 00:45:00,
2013-08-18 21:00:00,78.5,74.0,30.17,WSW,255,0.0,1.0,86,0.00,,,0.01,weatherlink.com 1.10,2013-08-19 01:00:00,
2013-08-18 21:15:00,78.1,74.0,30.17,West,264,0.0,1.0,88,0.00,,,0.01,weatherlink.com 1.10,2013-08-19 01:15:00,
2013-08-18 21:30:00,78.1,75.0,30.18,WSW,244,0.0,2.0,89,0.00,,,0.01,weatherlink.com 1.10,2013-08-19 01:30:00,
2013-08-18 21:45:00,78.6,76.0,30.18,WSW,248,4.0,4.0,90,0.00,,,0.01,weatherlink.com 1.10,2013-08-19 01:45:00,
2013-08-18 22:00:00,78.7,76.0,30.18,West,271,1.0,5.0,90,0.00,,,0.01,weatherlink.com 1.10,2013-08-19 02:00:00,
2013-08-18 22:15:00,78.8,76.0,30.18,SW,233,3.0,4.0,91,0.00,,,0.01,weatherlink.com 1.10,2013-08-19 02:15:00,
2013-08-18 22:30:00,78.6,76.0,30.18,West,264,0.0,3.0,91,0.00,,,0.01,weatherlink.com 1.10,2013-08-19 02:30:00,
2013-08-18 22:45:00,78.3,76.0,30.18,West,281,1.0,2.0,91,0.00,,,0.01,weatherlink.com 1.10,2013-08-19 02:45:00,
2013-08-18 23:00:00,78.2,76.0,30.18,West,276,1.0,3.0,92,0.00,,,0.01,weatherlink.com 1.10,2013-08-19 03:00:00,
2013-08-18 23:15:00,78.1,76.0,30.18,WSW,255,0.0,1.0,92,0.00,,,0.01,weatherlink.com 1.10,2013-08-19 03:15:00,
2013-08-18 23:30:00,78.1,76.0,30.18,West,259,1.0,3.0,92,0.00,,,0.01,weatherlink.com 1.10,2013-08-19 03:30:00,
2013-08-18 23:45:00,77.7,76.0,30.18,WSW,257,0.0,1.0,93,0.00,,,0.01,weatherlink.com 1.10,2013-08-19 03:45:00,